Time;durP1;ratioP1;P1;durP2;ratioP2;P2;SDS_P1;SDS_P2;PMS_P1;PMS_P2;Temp;Humidity;BMP_temperature;BMP_pressure;BME280_temperature;BME280_humidity;BME280_pressure;Samples;Min_cycle;Max_cycle;Signal;HPM_P1;HPM_P2
2023/07/28 00:01:27;;;;;;;6.10;5.70;;;;;;;17.93;100.00;99124.06;5040005;28;20232;-83
2023/07/28 00:03:54;;;;;;;6.07;5.67;;;;;;;17.80;100.00;99129.31;5042094;28;20676;-83
2023/07/28 00:06:20;;;;;;;6.27;5.77;;;;;;;17.85;100.00;99122.78;5036989;28;20286;-83
2023/07/28 00:08:47;;;;;;;6.60;6.30;;;;;;;17.91;100.00;99118.88;5043232;28;20217;-82
2023/07/28 00:11:15;;;;;;;6.57;6.03;;;;;;;17.87;100.00;99133.25;5039995;28;20233;-83
2023/07/28 00:13:42;;;;;;;6.90;6.40;;;;;;;17.89;100.00;99136.63;5037652;28;20211;-80
2023/07/28 00:16:09;;;;;;;9.23;6.27;;;;;;;17.90;100.00;99126.91;5036541;28;20244;-82
2023/07/28 00:18:37;;;;;;;6.83;6.43;;;;;;;17.84;100.00;99126.41;5037161;28;20205;-83
2023/07/28 00:21:05;;;;;;;6.67;6.27;;;;;;;17.92;100.00;99128.50;5044917;28;20214;-80
2023/07/28 00:23:32;;;;;;;7.17;6.47;;;;;;;17.97;100.00;99141.38;5028312;28;20212;-82
2023/07/28 00:25:58;;;;;;;7.00;6.50;;;;;;;17.88;100.00;99140.22;5036416;28;20235;-82
2023/07/28 00:28:25;;;;;;;7.00;6.60;;;;;;;17.90;100.00;99133.03;5045098;28;20617;-83
2023/07/28 00:30:51;;;;;;;7.60;7.10;;;;;;;17.85;100.00;99135.16;5036660;28;20219;-81
2023/07/28 00:33:18;;;;;;;6.80;6.40;;;;;;;17.79;100.00;99128.47;5037279;28;20226;-82
2023/07/28 00:35:46;;;;;;;7.60;5.57;;;;;;;17.89;100.00;99126.06;5040767;28;20223;-81
2023/07/28 00:38:12;;;;;;;6.70;6.30;;;;;;;17.79;100.00;99125.81;5047623;28;20236;-81
2023/07/28 00:40:38;;;;;;;6.20;5.80;;;;;;;17.86;100.00;99126.28;5045775;28;20209;-83
2023/07/28 00:43:05;;;;;;;6.37;5.97;;;;;;;17.84;100.00;99133.47;5035376;28;20204;-82
2023/07/28 00:45:33;;;;;;;6.27;5.87;;;;;;;17.90;100.00;99137.47;5036539;28;20212;-82
2023/07/28 00:48:00;;;;;;;6.23;5.83;;;;;;;17.88;100.00;99134.94;5045028;28;20213;-81
2023/07/28 00:50:27;;;;;;;5.70;5.40;;;;;;;17.80;100.00;99131.94;5047250;28;20637;-82
2023/07/28 00:52:56;;;;;;;6.60;6.20;;;;;;;17.81;100.00;99133.66;5040850;28;20230;-84
2023/07/28 00:55:23;;;;;;;6.00;5.60;;;;;;;17.86;100.00;99137.69;5046469;28;20211;-82
2023/07/28 00:57:50;;;;;;;6.40;5.90;;;;;;;17.89;100.00;99141.91;5042186;28;20205;-83
2023/07/28 01:00:17;;;;;;;6.43;5.93;;;;;;;17.89;100.00;99141.91;5038017;28;20209;-82
2023/07/28 01:02:44;;;;;;;6.37;5.87;;;;;;;17.81;100.00;99144.22;5043305;28;20688;-82
2023/07/28 01:05:10;;;;;;;5.80;5.27;;;;;;;17.88;100.00;99132.31;5036668;28;20210;-82
2023/07/28 01:07:44;;;;;;;6.40;5.63;;;;;;;17.80;100.00;99127.53;5035487;28;20254;-82
2023/07/28 01:10:17;;;;;;;5.70;5.40;;;;;;;17.81;100.00;99121.28;5044376;28;20272;-81
2023/07/28 01:12:44;;;;;;;5.67;5.27;;;;;;;17.91;100.00;99124.16;5034929;28;20234;-82
2023/07/28 01:15:11;;;;;;;5.40;5.00;;;;;;;17.92;100.00;99123.22;5043769;28;20211;-82
2023/07/28 01:17:37;;;;;;;7.87;5.03;;;;;;;18.02;100.00;99134.81;5044013;28;20270;-82
2023/07/28 01:20:04;;;;;;;6.20;5.30;;;;;;;18.03;100.00;99135.66;5044308;28;20212;-82
2023/07/28 01:22:48;;;;;;;5.73;5.23;;;;;;;18.04;100.00;99134.72;5044691;28;20570;-82
2023/07/28 01:25:22;;;;;;;5.10;4.77;;;;;;;18.11;100.00;99143.88;5035488;28;20291;-82
2023/07/28 01:27:51;;;;;;;5.80;5.40;;;;;;;18.10;100.00;99134.28;5035470;28;20207;-82
2023/07/28 01:30:19;;;;;;;5.70;5.40;;;;;;;18.15;100.00;99136.56;5036375;28;20204;-82
2023/07/28 01:32:45;;;;;;;5.37;4.97;;;;;;;18.11;100.00;99145.69;5036127;28;20239;-82
2023/07/28 01:35:12;;;;;;;5.53;4.97;;;;;;;18.12;100.00;99140.28;5043719;28;20222;-81
2023/07/28 01:37:38;;;;;;;4.67;4.30;;;;;;;18.09;100.00;99134.38;5036221;28;20226;-82
2023/07/28 01:40:06;;;;;;;4.40;4.10;;;;;;;18.14;100.00;99140.19;5045576;28;20235;-81
2023/07/28 01:42:32;;;;;;;4.37;4.07;;;;;;;18.16;100.00;99133.84;5044504;28;20295;-82
2023/07/28 01:45:00;;;;;;;3.77;3.43;;;;;;;18.19;100.00;99138.03;5042901;28;20218;-82
2023/07/28 01:47:26;;;;;;;3.60;3.40;;;;;;;18.08;100.00;99130.91;5036864;28;20240;-82
2023/07/28 01:49:53;;;;;;;3.50;3.20;;;;;;;18.11;100.00;99137.75;5036254;28;20804;-82
2023/07/28 01:52:19;;;;;;;3.90;3.70;;;;;;;17.82;100.00;99123.00;5044033;28;20231;-81
2023/07/28 01:54:46;;;;;;;3.23;3.03;;;;;;;17.90;100.00;99113.69;5036020;28;20218;-83
2023/07/28 01:57:12;;;;;;;3.60;3.30;;;;;;;17.90;100.00;99103.13;5035618;28;20651;-82
2023/07/28 01:59:38;;;;;;;3.33;2.70;;;;;;;17.84;100.00;99112.34;5031613;28;20206;-82
2023/07/28 02:02:07;;;;;;;2.73;2.53;;;;;;;17.83;100.00;99108.00;5039954;28;20207;-83
2023/07/28 02:04:33;;;;;;;2.27;2.17;;;;;;;17.78;100.00;99103.03;5036969;28;20215;-83
2023/07/28 02:06:59;;;;;;;2.20;2.10;;;;;;;17.84;100.00;99126.41;5042471;28;20226;-82
2023/07/28 02:09:26;;;;;;;2.07;1.97;;;;;;;17.82;100.00;99116.88;5039395;28;20210;-82
2023/07/28 02:11:53;;;;;;;2.17;2.00;;;;;;;17.79;100.00;99109.16;5047527;28;20309;-82
2023/07/28 02:14:19;;;;;;;2.07;1.87;;;;;;;17.67;100.00;99119.59;5047220;28;20876;-81
2023/07/28 02:16:46;;;;;;;3.60;1.80;;;;;;;17.76;100.00;99119.91;5044668;28;20859;-79
2023/07/28 02:19:13;;;;;;;1.90;1.80;;;;;;;17.77;100.00;99125.09;5060716;28;20207;-81
2023/07/28 02:21:40;;;;;;;2.10;2.00;;;;;;;17.73;100.00;99128.06;5046860;28;20209;-81
2023/07/28 02:24:06;;;;;;;2.50;2.00;;;;;;;17.70;100.00;99113.28;5054583;28;20245;-83
2023/07/28 02:26:33;;;;;;;2.07;1.97;;;;;;;17.78;100.00;99118.88;5057040;28;20235;-82
2023/07/28 02:28:59;;;;;;;2.53;2.33;;;;;;;17.62;100.00;99115.59;5034649;28;20215;-82
2023/07/28 02:31:25;;;;;;;2.57;2.40;;;;;;;17.55;100.00;99109.06;5042197;28;20265;-81
2023/07/28 02:33:52;;;;;;;2.57;2.47;;;;;;;17.63;100.00;99112.03;5034495;28;20255;-80
2023/07/28 02:36:20;;;;;;;3.63;2.23;;;;;;;17.61;100.00;99119.19;5043405;28;20692;-82
2023/07/28 02:38:46;;;;;;;2.80;2.60;;;;;;;17.61;100.00;99108.66;5033526;28;20204;-80
2023/07/28 02:41:13;;;;;;;3.60;2.77;;;;;;;17.67;100.00;99114.31;5034316;28;20705;-82
2023/07/28 02:43:39;;;;;;;2.80;2.70;;;;;;;17.73;100.00;99114.88;5036913;28;20200;-81
2023/07/28 02:46:05;;;;;;;3.30;2.40;;;;;;;17.69;100.00;99118.69;5038281;28;20239;-83
2023/07/28 02:48:32;;;;;;;2.43;2.20;;;;;;;17.76;100.00;99131.34;5041477;28;20270;-82
2023/07/28 02:50:58;;;;;;;3.30;2.30;;;;;;;17.81;100.00;99131.84;5034044;28;20694;-82
2023/07/28 02:53:26;;;;;;;2.23;2.10;;;;;;;17.88;100.00;99132.31;5033126;28;20226;-78
2023/07/28 02:55:52;;;;;;;2.20;2.03;;;;;;;17.95;100.00;99144.09;5042306;28;20235;-80
2023/07/28 02:58:19;;;;;;;1.97;1.77;;;;;;;17.94;100.00;99152.13;5042440;28;20212;-82
2023/07/28 03:00:46;;;;;;;2.17;2.07;;;;;;;17.88;100.00;99152.56;5033952;28;20730;-81
2023/07/28 03:03:13;;;;;;;2.03;1.80;;;;;;;17.94;100.00;99158.28;5034052;28;20211;-81
2023/07/28 03:05:40;;;;;;;1.77;1.57;;;;;;;17.97;100.00;99167.78;5042123;28;20204;-81
2023/07/28 03:08:07;;;;;;;1.83;1.73;;;;;;;17.97;100.00;99163.31;5037395;28;20257;-81
2023/07/28 03:10:35;;;;;;;2.90;1.63;;;;;;;17.94;100.00;99163.56;5037848;28;20203;-80
2023/07/28 03:13:01;;;;;;;2.30;1.60;;;;;;;17.94;100.00;99165.34;5036898;28;20698;-81
2023/07/28 03:15:28;;;;;;;1.97;1.77;;;;;;;17.86;100.00;99161.44;5039157;28;20210;-81
2023/07/28 03:17:54;;;;;;;2.13;1.50;;;;;;;17.90;100.00;99166.50;5044395;28;20231;-81
2023/07/28 03:20:21;;;;;;;1.90;1.67;;;;;;;17.85;100.00;99172.09;5037350;28;20645;-81
2023/07/28 03:22:47;;;;;;;2.40;1.50;;;;;;;17.88;100.00;99158.72;5044999;28;20207;-81
2023/07/28 03:25:14;;;;;;;2.60;1.77;;;;;;;17.90;100.00;99166.50;5045707;28;20234;-82
2023/07/28 03:27:41;;;;;;;1.57;1.47;;;;;;;17.84;100.00;99152.78;5038168;28;20262;-82
2023/07/28 03:30:10;;;;;;;2.27;2.07;;;;;;;17.87;100.00;99164.94;5037487;28;20212;-82
2023/07/28 03:32:37;;;;;;;1.63;1.53;;;;;;;17.87;100.00;99162.28;5047334;28;20313;-83
2023/07/28 03:35:04;;;;;;;1.97;1.60;;;;;;;17.75;100.00;99169.22;5043200;28;20215;-82
2023/07/28 03:37:31;;;;;;;2.20;2.10;;;;;;;17.80;100.00;99169.75;5036401;28;20227;-82
2023/07/28 03:39:57;;;;;;;2.10;1.73;;;;;;;17.84;100.00;99173.06;5045674;28;20203;-82
2023/07/28 03:42:24;;;;;;;1.80;1.70;;;;;;;17.80;100.00;99164.47;5045370;28;20207;-80
2023/07/28 03:44:52;;;;;;;3.97;1.80;;;;;;;17.89;100.00;99170.94;5037153;28;20207;-81
2023/07/28 03:47:19;;;;;;;2.67;2.47;;;;;;;17.90;100.00;99182.34;5036636;28;20245;-81
2023/07/28 03:49:46;;;;;;;2.13;2.00;;;;;;;17.84;100.00;99181.84;5029625;28;20207;-82
2023/07/28 03:52:12;;;;;;;1.90;1.80;;;;;;;17.93;100.00;99180.34;5036342;28;20210;-80
2023/07/28 03:54:39;;;;;;;2.27;2.00;;;;;;;17.89;100.00;99189.41;5044983;28;20207;-81
2023/07/28 03:57:06;;;;;;;2.10;2.00;;;;;;;17.89;100.00;99184.16;5042736;28;20283;-82
2023/07/28 03:59:32;;;;;;;2.57;2.37;;;;;;;17.90;100.00;99183.22;5037883;28;20213;-80
2023/07/28 04:02:00;;;;;;;2.67;2.30;;;;;;;17.79;100.00;99178.63;5036605;28;20664;-81
2023/07/28 04:04:26;;;;;;;2.50;2.30;;;;;;;17.79;100.00;99183.91;5045387;28;20211;-80
2023/07/28 04:06:53;;;;;;;2.97;2.77;;;;;;;17.71;100.00;99177.47;5041492;28;20286;-83
2023/07/28 04:09:20;;;;;;;2.57;2.40;;;;;;;17.69;100.00;99169.66;5040179;28;20232;-82
2023/07/28 04:11:47;;;;;;;2.60;2.40;;;;;;;17.80;100.00;99176.81;5044693;28;20208;-81
2023/07/28 04:14:14;;;;;;;2.53;2.43;;;;;;;17.80;100.00;99175.03;5042856;28;20243;-82
2023/07/28 04:16:40;;;;;;;2.37;2.27;;;;;;;17.81;100.00;99175.88;5037148;28;20225;-82
2023/07/28 04:19:08;;;;;;;3.03;2.73;;;;;;;17.81;100.00;99182.00;5042121;28;20669;-83
2023/07/28 04:21:35;;;;;;;2.77;2.57;;;;;;;17.87;100.00;99183.41;5046868;28;20211;-81
2023/07/28 04:24:01;;;;;;;2.43;2.10;;;;;;;17.94;100.00;99195.25;5034333;28;20263;-78
2023/07/28 04:26:28;;;;;;;2.30;2.10;;;;;;;17.95;100.00;99202.19;5044704;28;20593;-81
2023/07/28 04:28:54;;;;;;;2.23;2.13;;;;;;;17.95;100.00;99209.28;5044501;28;20215;-80
2023/07/28 04:31:21;;;;;;;1.97;1.80;;;;;;;17.86;100.00;99200.22;5043798;28;20234;-81
2023/07/28 04:33:47;;;;;;;1.57;1.50;;;;;;;17.89;100.00;99199.97;5035645;28;20223;-81
2023/07/28 04:36:15;;;;;;;1.37;1.37;;;;;;;17.94;100.00;99211.09;5044225;28;20237;-81
2023/07/28 04:38:41;;;;;;;2.90;1.60;;;;;;;17.78;100.00;99190.16;5042786;28;20260;-79
2023/07/28 04:41:08;;;;;;;3.00;1.57;;;;;;;17.80;100.00;99176.81;5035799;28;20271;-80
2023/07/28 04:43:34;;;;;;;1.53;1.40;;;;;;;17.84;100.00;99179.19;5044358;28;20204;-80
2023/07/28 04:46:00;;;;;;;1.73;1.67;;;;;;;17.85;100.00;99187.94;5040113;28;20238;-80
2023/07/28 04:48:28;;;;;;;2.60;1.77;;;;;;;17.79;100.00;99175.16;5047070;28;20201;-80
2023/07/28 04:50:54;;;;;;;1.60;1.50;;;;;;;17.76;100.00;99186.78;5044266;28;20231;-81
2023/07/28 04:53:22;;;;;;;1.57;1.47;;;;;;;17.86;100.00;99193.13;5064920;22;20236;-83
2023/07/28 04:55:49;;;;;;;1.90;1.60;;;;;;;17.78;100.00;99200.72;5067739;28;20217;-84
2023/07/28 04:58:15;;;;;;;1.70;1.60;;;;;;;17.83;100.00;99198.59;5075566;28;20200;-83
2023/07/28 05:00:42;;;;;;;1.90;1.80;;;;;;;17.78;100.00;99205.13;5074887;28;20207;-83
2023/07/28 05:03:08;;;;;;;3.03;2.53;;;;;;;17.82;100.00;99188.97;5075683;28;20233;-83
2023/07/28 05:05:35;;;;;;;2.43;2.30;;;;;;;17.63;100.00;99181.47;5076014;28;20206;-84
2023/07/28 05:08:01;;;;;;;3.00;2.70;;;;;;;17.67;100.00;99177.66;5075274;28;20202;-83
2023/07/28 05:10:29;;;;;;;3.10;2.87;;;;;;;17.54;100.00;99184.75;5071101;28;20686;-83
2023/07/28 05:12:56;;;;;;;3.17;2.97;;;;;;;17.50;100.00;99177.13;5075025;28;20222;-83
2023/07/28 05:15:23;;;;;;;3.30;3.10;;;;;;;17.59;100.00;99182.63;5076046;28;20213;-83
2023/07/28 05:17:50;;;;;;;3.60;3.30;;;;;;;17.65;100.00;99186.66;5074056;28;20253;-83
2023/07/28 05:20:17;;;;;;;3.30;3.10;;;;;;;17.61;100.00;99195.72;5074434;28;20266;-83
2023/07/28 05:22:43;;;;;;;3.17;3.03;;;;;;;17.58;100.00;99194.16;5074074;28;20206;-82
2023/07/28 05:25:10;;;;;;;3.63;3.43;;;;;;;17.69;100.00;99203.13;5074828;28;20221;-82
2023/07/28 05:27:37;;;;;;;3.60;3.20;;;;;;;17.66;100.00;99209.47;5074026;28;20205;-82
2023/07/28 05:30:05;;;;;;;3.43;3.23;;;;;;;17.61;100.00;99203.66;5074873;28;20208;-83
2023/07/28 05:32:31;;;;;;;3.47;3.27;;;;;;;17.58;100.00;99203.84;5077195;28;20209;-83
2023/07/28 05:34:57;;;;;;;3.63;3.37;;;;;;;17.66;100.00;99220.84;5078653;28;20356;-83
2023/07/28 05:37:24;;;;;;;4.00;3.77;;;;;;;17.69;100.00;99213.69;5078770;28;20201;-84
2023/07/28 05:39:51;;;;;;;4.00;3.70;;;;;;;17.69;100.00;99227.72;5080630;28;20222;-83
2023/07/28 05:42:17;;;;;;;4.20;3.90;;;;;;;17.71;100.00;99228.44;5073902;28;20204;-83
2023/07/28 05:44:45;;;;;;;4.07;3.77;;;;;;;17.78;100.00;99226.22;5076803;28;20243;-83
2023/07/28 05:47:11;;;;;;;3.53;3.33;;;;;;;17.80;100.00;99230.47;5078589;28;20210;-83
2023/07/28 05:49:38;;;;;;;3.70;3.50;;;;;;;17.88;100.00;99242.31;5079217;28;20200;-83
2023/07/28 05:52:05;;;;;;;3.73;3.53;;;;;;;17.86;100.00;99250.38;5078236;28;20223;-83
2023/07/28 05:54:31;;;;;;;3.83;3.53;;;;;;;17.85;100.00;99260.06;5077799;28;20232;-83
2023/07/28 05:56:58;;;;;;;3.50;3.30;;;;;;;17.88;100.00;99259.03;5079476;28;20202;-85
2023/07/28 05:59:24;;;;;;;4.00;3.80;;;;;;;17.98;100.00;99260.09;5080100;28;20614;-84
2023/07/28 06:01:52;;;;;;;4.20;3.90;;;;;;;17.92;100.00;99254.34;5085914;28;20265;-82
2023/07/28 06:04:19;;;;;;;3.87;3.40;;;;;;;18.09;100.00;99258.50;5095155;28;20223;-83
2023/07/28 06:06:45;;;;;;;4.10;3.80;;;;;;;18.08;100.00;99270.88;5071947;28;20672;-84
2023/07/28 06:09:12;;;;;;;3.60;3.40;;;;;;;18.09;100.00;99264.63;5079481;28;20207;-85
2023/07/28 06:11:38;;;;;;;3.97;3.77;;;;;;;18.20;100.00;99254.16;5080167;28;20201;-84
2023/07/28 06:14:05;;;;;;;4.83;4.07;;;;;;;18.18;100.00;99256.06;5077973;28;20229;-84
2023/07/28 06:16:32;;;;;;;4.40;4.00;;;;;;;18.30;100.00;99259.66;5080846;28;20206;-84
2023/07/28 06:18:59;;;;;;;4.10;3.90;;;;;;;18.31;100.00;99281.63;5079866;28;20236;-83
2023/07/28 06:21:26;;;;;;;3.83;3.63;;;;;;;18.29;100.00;99272.97;5078146;28;20203;-83
2023/07/28 06:23:52;;;;;;;3.77;3.57;;;;;;;18.32;100.00;99278.88;5081651;28;20225;-82
2023/07/28 06:26:19;;;;;;;4.23;4.03;;;;;;;18.32;100.00;99285.97;5086159;28;20227;-83
2023/07/28 06:28:45;;;;;;;3.83;3.63;;;;;;;18.31;100.00;99302.75;5078395;28;20211;-83
2023/07/28 06:31:12;;;;;;;4.13;3.93;;;;;;;18.44;100.00;99296.50;5078978;28;20200;-84
2023/07/28 06:33:38;;;;;;;4.57;4.33;;;;;;;18.41;100.00;99304.66;5078560;28;20227;-83
2023/07/28 06:36:06;;;;;;;3.70;3.50;;;;;;;18.37;100.00;99313.72;5078057;28;20201;-83
2023/07/28 06:38:33;;;;;;;4.07;3.77;;;;;;;18.34;100.00;99324.53;5079526;28;20204;-84
2023/07/28 06:40:59;;;;;;;4.47;4.17;;;;;;;18.36;100.00;99316.50;5078035;28;20652;-83
2023/07/28 06:43:26;;;;;;;4.57;4.27;;;;;;;18.35;100.00;99317.44;5082650;28;20276;-85
2023/07/28 06:45:53;;;;;;;4.93;4.63;;;;;;;18.41;100.00;99317.00;5082682;28;20237;-85
2023/07/28 06:48:20;;;;;;;4.67;4.37;;;;;;;18.40;100.00;99324.09;5084373;28;20206;-84
2023/07/28 06:50:47;;;;;;;5.20;4.80;;;;;;;18.38;100.00;99326.00;5084264;28;20695;-82
2023/07/28 06:53:14;;;;;;;4.90;4.50;;;;;;;18.44;100.00;99322.94;5083844;28;20226;-86
2023/07/28 06:55:41;;;;;;;5.37;4.97;;;;;;;18.50;100.00;99328.75;5082671;28;20199;-83
2023/07/28 06:58:07;;;;;;;5.07;4.77;;;;;;;18.42;100.00;99339.84;5081240;28;20206;-84
2023/07/28 07:00:34;;;;;;;5.90;5.53;;;;;;;18.40;100.00;99345.25;5081104;28;20669;-84
2023/07/28 07:03:01;;;;;;;5.03;4.73;;;;;;;18.47;100.00;99345.66;5081717;28;20669;-84
2023/07/28 07:05:27;;;;;;;5.43;5.13;;;;;;;18.48;100.00;99346.53;5083799;28;20209;-80
2023/07/28 07:07:54;;;;;;;5.20;4.87;;;;;;;18.58;100.00;99347.56;5083099;28;20222;-81
2023/07/28 07:10:22;;;;;;;5.70;5.40;;;;;;;18.58;100.00;99342.28;5084186;28;20218;-80
2023/07/28 07:12:48;;;;;;;5.43;5.13;;;;;;;18.41;100.00;99338.16;5081580;28;20214;-81
2023/07/28 07:15:15;;;;;;;5.17;4.87;;;;;;;18.40;100.00;99342.59;5082239;28;20651;-84
2023/07/28 07:17:41;;;;;;;6.10;5.80;;;;;;;18.50;100.00;99339.34;5091352;28;20201;-82
2023/07/28 07:20:10;;;;;;;5.40;5.10;;;;;;;18.53;100.00;99345.25;5083469;28;20208;-82
2023/07/28 07:22:36;;;;;;;5.60;5.30;;;;;;;18.54;100.00;99365.44;5082611;28;20201;-80
2023/07/28 07:25:03;;;;;;;5.60;5.20;;;;;;;18.42;100.00;99377.69;5073972;28;20249;-80
2023/07/28 07:27:31;;;;;;;6.00;5.50;;;;;;;18.50;100.00;99385.09;5082418;28;20211;-81
2023/07/28 07:29:58;;;;;;;5.33;5.03;;;;;;;18.59;100.00;99379.19;5082367;28;20306;-81
2023/07/28 07:32:24;;;;;;;5.23;4.93;;;;;;;18.49;100.00;99396.59;5081508;28;20209;-80
2023/07/28 07:34:52;;;;;;;5.70;5.30;;;;;;;18.49;100.00;99393.13;5080646;28;20225;-81
2023/07/28 07:37:19;;;;;;;5.90;5.50;;;;;;;18.57;100.00;99393.44;5080446;28;20210;-81
2023/07/28 07:39:46;;;;;;;5.47;5.17;;;;;;;18.52;100.00;99388.47;5081466;28;20210;-80
2023/07/28 07:42:13;;;;;;;6.50;5.33;;;;;;;18.63;100.00;99388.59;5079947;28;20202;-83
2023/07/28 07:44:41;;;;;;;5.47;5.17;;;;;;;18.58;100.00;99408.34;5082139;28;20763;-83
2023/07/28 07:47:15;;;;;;;5.93;5.53;;;;;;;18.66;100.00;99404.22;5084991;28;20211;-82
2023/07/28 07:49:42;;;;;;;5.50;5.20;;;;;;;18.76;100.00;99399.16;5085535;28;20213;-82
2023/07/28 07:52:09;;;;;;;5.43;5.13;;;;;;;18.84;100.00;99412.69;5083316;28;20199;-78
2023/07/28 07:54:35;;;;;;;5.60;5.30;;;;;;;19.04;100.00;99418.41;5082221;28;20698;-82
2023/07/28 07:57:02;;;;;;;4.70;4.40;;;;;;;19.17;100.00;99427.16;5081233;28;20589;-81
2023/07/28 07:59:32;;;;;;;5.00;4.70;;;;;;;19.30;100.00;99461.53;5081211;28;20209;-81
2023/07/28 08:02:02;;;;;;;5.53;5.13;;;;;;;19.53;100.00;99482.88;5081158;28;20259;-80
2023/07/28 08:04:29;;;;;;;6.00;4.37;;;;;;;19.67;100.00;99503.91;4378307;28;10000700;-81
2023/07/28 08:06:55;;;;;;;4.33;4.13;;;;;;;19.76;100.00;99518.31;5077696;28;20825;-81
2023/07/28 08:09:22;;;;;;;4.60;4.40;;;;;;;19.79;100.00;99548.06;5077652;28;20209;-81
2023/07/28 08:11:49;;;;;;;4.10;3.80;;;;;;;19.90;100.00;99554.38;5078235;28;20295;-82
2023/07/28 08:14:15;;;;;;;3.90;3.60;;;;;;;19.96;100.00;99576.00;5077929;28;20315;-82
2023/07/28 08:16:42;;;;;;;4.20;4.00;;;;;;;19.98;98.82;99600.59;5077896;28;20198;-82
2023/07/28 08:19:10;;;;;;;4.17;3.87;;;;;;;20.09;99.17;99605.09;5077715;28;20654;-81
2023/07/28 08:21:36;;;;;;;3.87;3.67;;;;;;;20.13;97.58;99619.81;5076796;28;20207;-82
2023/07/28 08:24:03;;;;;;;4.60;4.33;;;;;;;20.14;96.55;99631.28;5086367;28;20234;-81
2023/07/28 08:26:30;;;;;;;4.07;3.77;;;;;;;20.22;95.74;99648.31;5085614;28;20206;-81
2023/07/28 08:28:56;;;;;;;3.50;3.30;;;;;;;20.40;95.63;99647.94;5074390;28;20238;-81
2023/07/28 08:31:23;;;;;;;3.60;3.40;;;;;;;20.43;94.99;99659.19;5085192;28;20218;-80
2023/07/28 08:33:49;;;;;;;3.30;3.10;;;;;;;20.44;93.05;99690.03;5088254;28;20238;-82
2023/07/28 08:36:17;;;;;;;3.50;3.20;;;;;;;20.53;93.44;99692.97;5070146;28;20207;-81
2023/07/28 08:38:44;;;;;;;3.90;3.50;;;;;;;20.61;93.49;99690.63;5077133;28;20791;-82
2023/07/28 08:41:11;;;;;;;3.17;2.97;;;;;;;20.63;91.61;99729.38;5078459;28;20399;-81
2023/07/28 08:43:37;;;;;;;3.40;3.00;;;;;;;20.75;92.71;99698.44;5077967;28;20601;-82
2023/07/28 08:46:04;;;;;;;3.00;2.80;;;;;;;20.87;92.00;99717.06;5076235;28;20204;-82
2023/07/28 08:48:30;;;;;;;2.77;2.67;;;;;;;20.82;91.08;99730.66;5078091;28;20232;-81
2023/07/28 08:50:57;;;;;;;2.73;2.53;;;;;;;20.67;88.69;99753.84;5077318;28;20218;-81
2023/07/28 08:53:25;;;;;;;3.47;2.87;;;;;;;20.81;90.31;99743.09;5080243;28;20243;-81
2023/07/28 08:55:52;;;;;;;3.20;3.00;;;;;;;20.71;89.27;99770.38;5074543;28;20296;-81
2023/07/28 08:58:20;;;;;;;2.90;2.70;;;;;;;20.74;89.28;99759.56;5077495;28;20209;-80
2023/07/28 09:00:48;;;;;;;3.00;2.80;;;;;;;20.87;89.02;99771.00;5077245;28;20212;-81
2023/07/28 09:03:16;;;;;;;2.80;2.70;;;;;;;20.89;86.85;99805.34;5076452;28;20228;-82
2023/07/28 09:05:43;;;;;;;2.97;2.87;;;;;;;20.82;87.55;99804.94;5076490;28;20223;-82
2023/07/28 09:08:09;;;;;;;2.80;2.70;;;;;;;21.08;88.04;99788.94;5076767;28;20202;-82
2023/07/28 09:10:44;;;;;;;2.80;2.67;;;;;;;21.27;87.02;99799.03;5076889;28;20215;-82
2023/07/28 09:13:12;;;;;;;3.30;3.10;;;;;;;21.39;86.84;99791.03;5069011;28;20613;-82
2023/07/28 09:15:39;;;;;;;2.90;2.80;;;;;;;21.34;85.20;99835.63;5076857;28;20254;-82
2023/07/28 09:18:08;;;;;;;2.40;2.30;;;;;;;21.22;84.48;99850.66;5076870;28;20209;-82
2023/07/28 09:20:36;;;;;;;3.07;2.87;;;;;;;21.00;85.59;99853.19;5077705;28;20212;-82
2023/07/28 09:23:04;;;;;;;2.97;2.77;;;;;;;20.95;86.05;99821.69;5076827;28;20237;-82
2023/07/28 09:25:30;;;;;;;2.57;2.40;;;;;;;21.17;85.13;99836.06;5076393;28;20201;-81
2023/07/28 09:27:59;;;;;;;2.93;2.73;;;;;;;21.31;84.39;99845.66;5076922;28;20229;-81
2023/07/28 09:30:26;;;;;;;3.20;3.10;;;;;;;21.27;84.23;99871.59;5077804;28;20211;-81
2023/07/28 09:32:54;;;;;;;3.03;2.70;;;;;;;21.22;84.15;99865.75;5076628;28;20251;-82
2023/07/28 09:35:21;;;;;;;2.63;2.47;;;;;;;21.23;84.53;99862.16;5077432;28;20231;-81
2023/07/28 09:37:49;;;;;;;3.03;2.73;;;;;;;21.32;85.51;99837.56;5076917;28;20219;-82
2023/07/28 09:40:20;;;;;;;3.13;2.70;;;;;;;21.38;84.31;99844.22;5077150;28;20207;-82
2023/07/28 09:42:50;;;;;;;2.60;2.50;;;;;;;21.19;83.64;99864.16;5077265;28;20215;-80
2023/07/28 09:45:18;;;;;;;2.53;2.43;;;;;;;21.17;83.90;99866.09;5074044;28;20234;-82
2023/07/28 09:47:47;;;;;;;2.80;2.60;;;;;;;21.05;85.21;99844.88;5075233;28;20215;-81
2023/07/28 09:50:15;;;;;;;2.33;2.23;;;;;;;21.17;85.42;99828.09;5066228;28;20206;-80
2023/07/28 09:52:44;;;;;;;2.40;2.30;;;;;;;21.28;83.46;99861.81;5075593;28;20208;-81
2023/07/28 09:55:13;;;;;;;2.50;2.30;;;;;;;21.47;82.79;99875.47;5075033;28;20284;-81
2023/07/28 09:57:42;;;;;;;2.30;2.20;;;;;;;21.50;82.73;99872.56;5075772;28;20640;-81
2023/07/28 10:00:11;;;;;;;2.20;2.10;;;;;;;21.48;80.60;99924.09;5076045;28;20273;-80
2023/07/28 10:02:39;;;;;;;2.60;2.50;;;;;;;21.64;81.68;99905.25;5078660;28;20217;-80
2023/07/28 10:05:07;;;;;;;2.47;2.37;;;;;;;21.83;79.04;99928.66;5073979;28;20231;-82
2023/07/28 10:07:35;;;;;;;2.07;1.97;;;;;;;21.83;77.46;99992.41;5074426;28;20231;-80
2023/07/28 10:10:02;;;;;;;2.13;2.00;;;;;;;21.84;78.07;100000.25;5074164;28;20212;-80
2023/07/28 10:12:29;;;;;;;2.43;2.33;;;;;;;21.89;78.27;99992.81;5074642;28;20709;-81
2023/07/28 10:15:02;;;;;;;2.20;2.10;;;;;;;22.02;79.13;99967.03;5084501;28;20235;-80
2023/07/28 10:17:32;;;;;;;2.00;1.90;;;;;;;21.90;76.52;100014.91;5078972;28;20208;-80
2023/07/28 10:20:00;;;;;;;3.43;1.80;;;;;;;21.92;77.03;100023.63;5080272;28;20314;-79
2023/07/28 10:22:27;;;;;;;2.20;2.10;;;;;;;22.02;77.39;100017.53;5079993;28;20207;-79
2023/07/28 10:24:55;;;;;;;1.83;1.73;;;;;;;21.96;77.36;100020.63;5078728;28;20733;-79
2023/07/28 10:27:32;;;;;;;2.30;2.20;;;;;;;21.97;77.47;100018.81;5079827;28;20204;-80
2023/07/28 10:29:59;;;;;;;2.37;2.17;;;;;;;21.83;78.48;100003.06;5079673;28;20211;-79
2023/07/28 10:32:28;;;;;;;2.70;2.50;;;;;;;21.98;79.13;99968.22;5081130;28;20250;-81
2023/07/28 10:35:01;;;;;;;2.60;2.40;;;;;;;22.12;77.68;99959.22;5081336;28;20326;-82
2023/07/28 10:37:28;;;;;;;2.50;2.40;;;;;;;22.34;77.92;99970.94;5079497;28;20203;-80
2023/07/28 10:40:28;;;;;;;2.03;1.93;;;;;;;22.43;75.91;100020.75;5080656;28;20266;-80
2023/07/28 10:42:55;;;;;;;2.30;2.20;;;;;;;22.43;73.58;100078.41;5088468;28;20207;-80
2023/07/28 10:45:23;;;;;;;1.90;1.80;;;;;;;22.38;74.09;100087.59;5073808;28;20210;-81
2023/07/28 10:47:50;;;;;;;1.97;1.87;;;;;;;22.56;74.97;100076.56;5081351;28;20315;-80
2023/07/28 10:50:20;;;;;;;2.10;2.00;;;;;;;22.57;75.13;100055.13;5081551;28;20204;-82
2023/07/28 10:52:47;;;;;;;3.77;2.27;;;;;;;22.57;75.76;100054.28;5079341;28;20205;-80
2023/07/28 10:55:15;;;;;;;2.80;2.70;;;;;;;22.58;76.19;100027.56;5079714;28;20235;-80
2023/07/28 10:57:42;;;;;;;3.23;3.00;;;;;;;22.57;75.79;100039.16;5080217;28;20208;-83
2023/07/28 11:00:11;;;;;;;2.50;2.40;;;;;;;22.54;73.95;100054.53;5080185;28;20244;-80
2023/07/28 11:02:39;;;;;;;2.63;2.43;;;;;;;22.41;74.79;100062.56;5079916;28;20215;-80
2023/07/28 11:05:12;;;;;;;2.57;2.40;;;;;;;22.55;75.03;100053.56;5080881;28;20237;-82
2023/07/28 11:07:42;;;;;;;3.03;2.83;;;;;;;22.56;75.26;100056.09;5080915;28;20245;-81
2023/07/28 11:10:11;;;;;;;2.53;2.43;;;;;;;22.63;75.17;100039.69;5080913;28;20210;-83
2023/07/28 11:12:40;;;;;;;2.73;2.60;;;;;;;22.72;75.34;100033.66;5080647;28;20223;-82
2023/07/28 11:15:10;;;;;;;3.30;3.10;;;;;;;22.86;76.65;100000.69;5080952;28;20243;-83
2023/07/28 11:17:37;;;;;;;3.20;2.90;;;;;;;22.84;76.40;100000.78;5082488;28;20236;-86
2023/07/28 11:20:07;;;;;;;1.97;1.87;;;;;;;23.01;71.46;100055.38;5080962;28;20212;-84
2023/07/28 11:22:37;;;;;;;2.57;2.37;;;;;;;23.20;70.68;100137.38;5080777;28;20208;-83
2023/07/28 11:25:10;;;;;;;1.80;1.70;;;;;;;23.09;70.52;100164.84;5080067;28;20216;-85
2023/07/28 11:27:37;;;;;;;2.93;2.73;;;;;;;23.04;71.77;100143.03;5078337;28;20234;-85